sensor_id;sensor_type;location;lat;lon;timestamp;P1;durP1;ratioP1;P2;durP2;ratioP2
18899;SDS011;9582;52.018;6.306;2024-01-15T00:01:42;5.10;;;2.33;;
18899;SDS011;9582;52.018;6.306;2024-01-15T00:04:10;4.80;;;2.20;;
18899;SDS011;9582;52.018;6.306;2024-01-15T00:06:36;2.57;;;1.30;;
18899;SDS011;9582;52.018;6.306;2024-01-15T00:09:03;7.37;;;2.20;;
18899;SDS011;9582;52.018;6.306;2024-01-15T00:11:30;6.40;;;2.30;;
18899;SDS011;9582;52.018;6.306;2024-01-15T00:13:57;2.43;;;1.10;;
18899;SDS011;9582;52.018;6.306;2024-01-15T00:16:23;7.10;;;1.80;;
18899;SDS011;9582;52.018;6.306;2024-01-15T00:18:51;3.23;;;1.57;;
18899;SDS011;9582;52.018;6.306;2024-01-15T00:21:18;3.53;;;1.70;;
18899;SDS011;9582;52.018;6.306;2024-01-15T00:23:45;3.97;;;1.40;;
18899;SDS011;9582;52.018;6.306;2024-01-15T00:26:11;4.53;;;1.77;;
18899;SDS011;9582;52.018;6.306;2024-01-15T00:28:38;2.30;;;1.00;;
18899;SDS011;9582;52.018;6.306;2024-01-15T00:31:05;6.23;;;1.77;;
18899;SDS011;9582;52.018;6.306;2024-01-15T00:33:32;1.33;;;0.80;;
18899;SDS011;9582;52.018;6.306;2024-01-15T00:36:00;5.13;;;1.13;;
18899;SDS011;9582;52.018;6.306;2024-01-15T00:38:28;3.70;;;1.30;;
18899;SDS011;9582;52.018;6.306;2024-01-15T00:40:54;3.87;;;0.80;;
18899;SDS011;9582;52.018;6.306;2024-01-15T00:43:21;6.77;;;1.53;;
18899;SDS011;9582;52.018;6.306;2024-01-15T00:45:48;4.53;;;1.30;;
18899;SDS011;9582;52.018;6.306;2024-01-15T00:48:14;3.70;;;1.37;;
18899;SDS011;9582;52.018;6.306;2024-01-15T00:50:41;4.63;;;1.30;;
18899;SDS011;9582;52.018;6.306;2024-01-15T00:53:09;3.53;;;1.23;;
18899;SDS011;9582;52.018;6.306;2024-01-15T00:55:35;5.10;;;1.10;;
18899;SDS011;9582;52.018;6.306;2024-01-15T00:58:02;2.83;;;1.27;;
18899;SDS011;9582;52.018;6.306;2024-01-15T01:00:29;4.57;;;1.10;;
18899;SDS011;9582;52.018;6.306;2024-01-15T01:02:56;3.47;;;1.00;;
18899;SDS011;9582;52.018;6.306;2024-01-15T01:05:22;8.47;;;1.83;;
18899;SDS011;9582;52.018;6.306;2024-01-15T01:07:49;4.40;;;1.13;;
18899;SDS011;9582;52.018;6.306;2024-01-15T01:10:17;4.63;;;1.40;;
18899;SDS011;9582;52.018;6.306;2024-01-15T01:12:44;10.47;;;1.50;;
18899;SDS011;9582;52.018;6.306;2024-01-15T01:15:10;4.00;;;1.10;;
18899;SDS011;9582;52.018;6.306;2024-01-15T01:17:37;7.03;;;1.63;;
18899;SDS011;9582;52.018;6.306;2024-01-15T01:20:04;2.80;;;0.83;;
18899;SDS011;9582;52.018;6.306;2024-01-15T01:22:33;7.80;;;1.40;;
18899;SDS011;9582;52.018;6.306;2024-01-15T01:25:00;2.27;;;0.87;;
18899;SDS011;9582;52.018;6.306;2024-01-15T01:27:28;2.03;;;0.97;;
18899;SDS011;9582;52.018;6.306;2024-01-15T01:29:54;3.03;;;0.87;;
18899;SDS011;9582;52.018;6.306;2024-01-15T01:32:21;4.93;;;1.20;;
18899;SDS011;9582;52.018;6.306;2024-01-15T01:34:47;7.47;;;1.17;;
18899;SDS011;9582;52.018;6.306;2024-01-15T01:37:14;2.77;;;1.27;;
18899;SDS011;9582;52.018;6.306;2024-01-15T01:39:41;3.47;;;1.00;;
18899;SDS011;9582;52.018;6.306;2024-01-15T01:42:08;3.67;;;1.00;;
18899;SDS011;9582;52.018;6.306;2024-01-15T01:44:37;3.27;;;1.17;;
18899;SDS011;9582;52.018;6.306;2024-01-15T01:47:03;6.77;;;1.30;;
18899;SDS011;9582;52.018;6.306;2024-01-15T01:49:31;4.17;;;1.23;;
18899;SDS011;9582;52.018;6.306;2024-01-15T01:52:01;2.60;;;0.90;;
18899;SDS011;9582;52.018;6.306;2024-01-15T01:54:29;5.87;;;1.20;;
18899;SDS011;9582;52.018;6.306;2024-01-15T01:56:58;4.57;;;1.00;;
18899;SDS011;9582;52.018;6.306;2024-01-15T01:59:26;3.87;;;1.20;;
18899;SDS011;9582;52.018;6.306;2024-01-15T02:01:55;1.33;;;0.57;;
18899;SDS011;9582;52.018;6.306;2024-01-15T02:04:22;1.13;;;0.63;;
18899;SDS011;9582;52.018;6.306;2024-01-15T02:06:50;4.90;;;1.10;;
18899;SDS011;9582;52.018;6.306;2024-01-15T02:09:17;3.73;;;1.47;;
18899;SDS011;9582;52.018;6.306;2024-01-15T02:11:45;3.87;;;1.00;;
18899;SDS011;9582;52.018;6.306;2024-01-15T02:14:12;5.33;;;1.10;;
18899;SDS011;9582;52.018;6.306;2024-01-15T02:16:40;6.13;;;1.37;;
18899;SDS011;9582;52.018;6.306;2024-01-15T02:19:07;3.93;;;1.23;;
18899;SDS011;9582;52.018;6.306;2024-01-15T02:21:41;5.67;;;1.27;;
18899;SDS011;9582;52.018;6.306;2024-01-15T02:24:09;5.30;;;1.00;;
18899;SDS011;9582;52.018;6.306;2024-01-15T02:26:36;3.10;;;1.20;;
18899;SDS011;9582;52.018;6.306;2024-01-15T02:29:03;7.07;;;1.37;;
18899;SDS011;9582;52.018;6.306;2024-01-15T02:31:32;3.57;;;1.00;;
18899;SDS011;9582;52.018;6.306;2024-01-15T02:33:59;5.97;;;1.20;;
18899;SDS011;9582;52.018;6.306;2024-01-15T02:36:25;2.23;;;0.60;;
18899;SDS011;9582;52.018;6.306;2024-01-15T02:38:52;6.97;;;1.27;;
18899;SDS011;9582;52.018;6.306;2024-01-15T02:41:20;5.13;;;1.13;;
18899;SDS011;9582;52.018;6.306;2024-01-15T02:43:47;3.03;;;0.93;;
18899;SDS011;9582;52.018;6.306;2024-01-15T02:46:13;4.10;;;0.87;;
18899;SDS011;9582;52.018;6.306;2024-01-15T02:48:41;7.00;;;1.27;;
18899;SDS011;9582;52.018;6.306;2024-01-15T02:51:08;4.20;;;0.93;;
18899;SDS011;9582;52.018;6.306;2024-01-15T02:53:35;6.77;;;1.30;;
18899;SDS011;9582;52.018;6.306;2024-01-15T02:56:02;5.10;;;1.37;;
18899;SDS011;9582;52.018;6.306;2024-01-15T02:58:30;4.20;;;1.30;;
18899;SDS011;9582;52.018;6.306;2024-01-15T03:00:57;4.70;;;1.20;;
18899;SDS011;9582;52.018;6.306;2024-01-15T03:03:23;6.53;;;1.50;;
18899;SDS011;9582;52.018;6.306;2024-01-15T03:05:50;9.87;;;2.23;;
18899;SDS011;9582;52.018;6.306;2024-01-15T03:08:17;9.30;;;1.30;;
18899;SDS011;9582;52.018;6.306;2024-01-15T03:10:43;6.27;;;1.23;;
18899;SDS011;9582;52.018;6.306;2024-01-15T03:13:10;5.07;;;1.50;;
18899;SDS011;9582;52.018;6.306;2024-01-15T03:15:38;3.67;;;1.47;;
18899;SDS011;9582;52.018;6.306;2024-01-15T03:18:05;5.70;;;1.87;;
18899;SDS011;9582;52.018;6.306;2024-01-15T03:20:32;1.00;;;0.53;;
18899;SDS011;9582;52.018;6.306;2024-01-15T03:22:58;2.23;;;0.30;;
18899;SDS011;9582;52.018;6.306;2024-01-15T03:25:25;4.67;;;1.10;;
18899;SDS011;9582;52.018;6.306;2024-01-15T03:27:52;6.40;;;1.20;;
18899;SDS011;9582;52.018;6.306;2024-01-15T03:30:18;3.47;;;0.63;;
18899;SDS011;9582;52.018;6.306;2024-01-15T03:32:46;3.70;;;1.30;;
18899;SDS011;9582;52.018;6.306;2024-01-15T03:35:15;7.30;;;1.10;;
18899;SDS011;9582;52.018;6.306;2024-01-15T03:37:41;2.33;;;0.87;;
18899;SDS011;9582;52.018;6.306;2024-01-15T03:40:08;2.80;;;0.90;;
18899;SDS011;9582;52.018;6.306;2024-01-15T03:42:36;2.07;;;1.00;;
18899;SDS011;9582;52.018;6.306;2024-01-15T03:45:03;3.83;;;0.93;;
18899;SDS011;9582;52.018;6.306;2024-01-15T03:47:30;1.90;;;0.43;;
18899;SDS011;9582;52.018;6.306;2024-01-15T03:49:58;1.80;;;0.60;;
18899;SDS011;9582;52.018;6.306;2024-01-15T03:52:25;3.83;;;1.00;;
18899;SDS011;9582;52.018;6.306;2024-01-15T03:54:51;3.83;;;0.70;;
18899;SDS011;9582;52.018;6.306;2024-01-15T03:57:18;1.70;;;0.80;;
18899;SDS011;9582;52.018;6.306;2024-01-15T03:59:44;3.40;;;0.93;;
18899;SDS011;9582;52.018;6.306;2024-01-15T04:02:12;5.67;;;1.57;;
18899;SDS011;9582;52.018;6.306;2024-01-15T04:04:40;3.00;;;0.80;;
18899;SDS011;9582;52.018;6.306;2024-01-15T04:07:08;4.43;;;0.80;;
18899;SDS011;9582;52.018;6.306;2024-01-15T04:09:35;2.70;;;1.03;;
18899;SDS011;9582;52.018;6.306;2024-01-15T04:12:02;4.17;;;1.53;;
18899;SDS011;9582;52.018;6.306;2024-01-15T04:14:29;4.20;;;1.53;;
18899;SDS011;9582;52.018;6.306;2024-01-15T04:16:55;2.67;;;1.13;;
18899;SDS011;9582;52.018;6.306;2024-01-15T04:19:22;2.33;;;0.87;;
18899;SDS011;9582;52.018;6.306;2024-01-15T04:21:48;5.53;;;1.50;;
18899;SDS011;9582;52.018;6.306;2024-01-15T04:24:16;5.60;;;1.20;;
18899;SDS011;9582;52.018;6.306;2024-01-15T04:26:43;6.37;;;1.10;;
18899;SDS011;9582;52.018;6.306;2024-01-15T04:29:11;8.20;;;1.10;;
18899;SDS011;9582;52.018;6.306;2024-01-15T04:31:37;3.37;;;1.20;;
18899;SDS011;9582;52.018;6.306;2024-01-15T04:34:04;3.37;;;1.23;;
18899;SDS011;9582;52.018;6.306;2024-01-15T04:36:31;6.77;;;1.10;;
18899;SDS011;9582;52.018;6.306;2024-01-15T04:38:57;3.07;;;0.77;;
18899;SDS011;9582;52.018;6.306;2024-01-15T04:41:25;2.00;;;0.23;;
18899;SDS011;9582;52.018;6.306;2024-01-15T04:43:52;4.43;;;0.70;;
18899;SDS011;9582;52.018;6.306;2024-01-15T04:46:18;2.57;;;0.73;;
18899;SDS011;9582;52.018;6.306;2024-01-15T04:48:45;11.03;;;1.07;;
18899;SDS011;9582;52.018;6.306;2024-01-15T04:51:12;3.40;;;0.63;;
18899;SDS011;9582;52.018;6.306;2024-01-15T04:53:38;1.27;;;0.43;;
18899;SDS011;9582;52.018;6.306;2024-01-15T04:56:05;6.87;;;0.80;;
18899;SDS011;9582;52.018;6.306;2024-01-15T04:58:33;1.83;;;1.00;;
18899;SDS011;9582;52.018;6.306;2024-01-15T05:00:59;1.40;;;0.67;;
18899;SDS011;9582;52.018;6.306;2024-01-15T05:03:26;2.27;;;0.90;;
18899;SDS011;9582;52.018;6.306;2024-01-15T05:05:53;4.63;;;1.33;;
18899;SDS011;9582;52.018;6.306;2024-01-15T05:08:19;8.93;;;1.30;;
18899;SDS011;9582;52.018;6.306;2024-01-15T05:10:46;2.43;;;1.07;;
18899;SDS011;9582;52.018;6.306;2024-01-15T05:13:13;4.77;;;1.00;;
18899;SDS011;9582;52.018;6.306;2024-01-15T05:15:41;4.30;;;1.20;;
18899;SDS011;9582;52.018;6.306;2024-01-15T05:18:08;12.40;;;2.07;;
18899;SDS011;9582;52.018;6.306;2024-01-15T05:20:34;4.77;;;1.00;;
18899;SDS011;9582;52.018;6.306;2024-01-15T05:23:01;3.73;;;1.10;;
18899;SDS011;9582;52.018;6.306;2024-01-15T05:25:27;6.17;;;1.20;;
18899;SDS011;9582;52.018;6.306;2024-01-15T05:27:54;5.73;;;1.10;;
18899;SDS011;9582;52.018;6.306;2024-01-15T05:30:21;7.33;;;2.00;;
18899;SDS011;9582;52.018;6.306;2024-01-15T05:32:49;6.63;;;1.20;;
18899;SDS011;9582;52.018;6.306;2024-01-15T05:35:15;5.50;;;1.43;;
18899;SDS011;9582;52.018;6.306;2024-01-15T05:37:44;3.87;;;1.10;;
18899;SDS011;9582;52.018;6.306;2024-01-15T05:40:11;3.40;;;1.17;;
18899;SDS011;9582;52.018;6.306;2024-01-15T05:42:38;9.80;;;1.50;;
18899;SDS011;9582;52.018;6.306;2024-01-15T05:45:05;4.37;;;1.37;;
18899;SDS011;9582;52.018;6.306;2024-01-15T05:47:32;4.67;;;0.97;;
18899;SDS011;9582;52.018;6.306;2024-01-15T05:50:01;6.50;;;1.50;;
18899;SDS011;9582;52.018;6.306;2024-01-15T05:52:28;6.30;;;1.40;;
18899;SDS011;9582;52.018;6.306;2024-01-15T05:54:55;3.70;;;1.30;;
18899;SDS011;9582;52.018;6.306;2024-01-15T05:57:21;6.23;;;1.83;;
18899;SDS011;9582;52.018;6.306;2024-01-15T05:59:48;10.50;;;2.17;;
18899;SDS011;9582;52.018;6.306;2024-01-15T06:02:15;3.37;;;1.50;;
18899;SDS011;9582;52.018;6.306;2024-01-15T06:04:41;4.57;;;1.23;;
18899;SDS011;9582;52.018;6.306;2024-01-15T06:07:09;6.30;;;2.30;;
18899;SDS011;9582;52.018;6.306;2024-01-15T06:09:36;5.17;;;1.90;;
18899;SDS011;9582;52.018;6.306;2024-01-15T06:12:03;4.30;;;1.30;;
18899;SDS011;9582;52.018;6.306;2024-01-15T06:14:30;6.77;;;1.87;;
18899;SDS011;9582;52.018;6.306;2024-01-15T06:16:57;4.97;;;2.00;;
18899;SDS011;9582;52.018;6.306;2024-01-15T06:19:24;4.50;;;2.47;;
18899;SDS011;9582;52.018;6.306;2024-01-15T06:21:50;6.63;;;2.10;;
18899;SDS011;9582;52.018;6.306;2024-01-15T06:24:18;5.67;;;1.67;;
18899;SDS011;9582;52.018;6.306;2024-01-15T06:26:46;3.60;;;1.60;;
18899;SDS011;9582;52.018;6.306;2024-01-15T06:29:12;5.13;;;1.60;;
18899;SDS011;9582;52.018;6.306;2024-01-15T06:31:39;0.77;;;0.67;;
18899;SDS011;9582;52.018;6.306;2024-01-15T06:34:05;5.53;;;1.30;;
18899;SDS011;9582;52.018;6.306;2024-01-15T06:36:32;4.17;;;1.97;;
18899;SDS011;9582;52.018;6.306;2024-01-15T06:38:59;2.67;;;1.23;;
18899;SDS011;9582;52.018;6.306;2024-01-15T06:41:27;6.43;;;2.07;;
18899;SDS011;9582;52.018;6.306;2024-01-15T06:43:53;3.60;;;1.17;;
18899;SDS011;9582;52.018;6.306;2024-01-15T06:46:21;6.80;;;2.20;;
18899;SDS011;9582;52.018;6.306;2024-01-15T06:48:47;3.97;;;1.57;;
18899;SDS011;9582;52.018;6.306;2024-01-15T06:51:15;4.93;;;1.40;;
18899;SDS011;9582;52.018;6.306;2024-01-15T06:53:42;2.93;;;1.30;;
18899;SDS011;9582;52.018;6.306;2024-01-15T06:56:09;6.83;;;2.00;;
18899;SDS011;9582;52.018;6.306;2024-01-15T06:58:37;4.80;;;1.37;;
18899;SDS011;9582;52.018;6.306;2024-01-15T07:01:03;6.67;;;2.13;;
18899;SDS011;9582;52.018;6.306;2024-01-15T07:03:30;1.67;;;1.17;;
18899;SDS011;9582;52.018;6.306;2024-01-15T07:05:57;3.73;;;1.90;;
18899;SDS011;9582;52.018;6.306;2024-01-15T07:08:24;4.10;;;1.90;;
18899;SDS011;9582;52.018;6.306;2024-01-15T07:10:51;7.60;;;2.10;;
18899;SDS011;9582;52.018;6.306;2024-01-15T07:13:17;3.27;;;2.07;;
18899;SDS011;9582;52.018;6.306;2024-01-15T07:15:46;3.87;;;2.20;;
18899;SDS011;9582;52.018;6.306;2024-01-15T07:18:12;7.70;;;2.50;;
18899;SDS011;9582;52.018;6.306;2024-01-15T07:20:39;3.97;;;1.83;;
18899;SDS011;9582;52.018;6.306;2024-01-15T07:23:06;2.77;;;1.47;;
18899;SDS011;9582;52.018;6.306;2024-01-15T07:25:33;3.50;;;1.80;;
18899;SDS011;9582;52.018;6.306;2024-01-15T07:27:59;3.50;;;2.13;;
18899;SDS011;9582;52.018;6.306;2024-01-15T07:30:26;2.70;;;2.00;;
18899;SDS011;9582;52.018;6.306;2024-01-15T07:32:54;3.27;;;2.07;;
18899;SDS011;9582;52.018;6.306;2024-01-15T07:35:21;2.70;;;1.70;;
18899;SDS011;9582;52.018;6.306;2024-01-15T07:37:47;4.77;;;1.37;;
18899;SDS011;9582;52.018;6.306;2024-01-15T07:40:14;6.30;;;1.93;;
18899;SDS011;9582;52.018;6.306;2024-01-15T07:42:41;2.63;;;1.80;;
18899;SDS011;9582;52.018;6.306;2024-01-15T07:45:08;3.90;;;1.93;;
18899;SDS011;9582;52.018;6.306;2024-01-15T07:47:35;3.60;;;1.80;;
18899;SDS011;9582;52.018;6.306;2024-01-15T07:50:03;4.17;;;2.20;;
18899;SDS011;9582;52.018;6.306;2024-01-15T07:52:30;3.97;;;2.90;;
18899;SDS011;9582;52.018;6.306;2024-01-15T07:54:57;5.13;;;3.23;;
18899;SDS011;9582;52.018;6.306;2024-01-15T07:57:25;5.10;;;3.60;;
18899;SDS011;9582;52.018;6.306;2024-01-15T07:59:52;6.33;;;3.43;;
18899;SDS011;9582;52.018;6.306;2024-01-15T08:02:18;5.23;;;3.57;;
18899;SDS011;9582;52.018;6.306;2024-01-15T08:04:45;7.17;;;4.47;;
18899;SDS011;9582;52.018;6.306;2024-01-15T08:07:13;6.30;;;4.27;;
18899;SDS011;9582;52.018;6.306;2024-01-15T08:09:40;3.37;;;2.70;;
18899;SDS011;9582;52.018;6.306;2024-01-15T08:12:07;7.13;;;5.27;;
18899;SDS011;9582;52.018;6.306;2024-01-15T08:14:35;5.97;;;4.27;;
18899;SDS011;9582;52.018;6.306;2024-01-15T08:17:01;6.40;;;4.50;;
18899;SDS011;9582;52.018;6.306;2024-01-15T08:19:28;6.30;;;4.77;;
18899;SDS011;9582;52.018;6.306;2024-01-15T08:21:55;8.03;;;6.27;;
18899;SDS011;9582;52.018;6.306;2024-01-15T08:24:22;6.43;;;4.63;;
18899;SDS011;9582;52.018;6.306;2024-01-15T08:26:49;7.77;;;5.97;;
18899;SDS011;9582;52.018;6.306;2024-01-15T08:29:16;6.10;;;4.33;;
18899;SDS011;9582;52.018;6.306;2024-01-15T08:31:44;9.50;;;6.93;;
18899;SDS011;9582;52.018;6.306;2024-01-15T08:34:10;10.87;;;6.10;;
18899;SDS011;9582;52.018;6.306;2024-01-15T08:36:37;9.37;;;6.23;;
18899;SDS011;9582;52.018;6.306;2024-01-15T08:39:03;6.63;;;4.00;;
18899;SDS011;9582;52.018;6.306;2024-01-15T08:41:32;7.03;;;4.43;;
18899;SDS011;9582;52.018;6.306;2024-01-15T08:43:59;6.57;;;5.03;;
18899;SDS011;9582;52.018;6.306;2024-01-15T08:46:26;5.77;;;4.67;;
18899;SDS011;9582;52.018;6.306;2024-01-15T08:48:53;4.43;;;3.23;;
18899;SDS011;9582;52.018;6.306;2024-01-15T08:51:19;6.03;;;4.33;;
18899;SDS011;9582;52.018;6.306;2024-01-15T08:53:46;3.67;;;2.43;;
18899;SDS011;9582;52.018;6.306;2024-01-15T08:56:12;5.13;;;4.00;;
18899;SDS011;9582;52.018;6.306;2024-01-15T08:58:40;5.03;;;3.37;;
18899;SDS011;9582;52.018;6.306;2024-01-15T09:01:07;3.20;;;2.60;;
18899;SDS011;9582;52.018;6.306;2024-01-15T09:03:34;5.47;;;3.80;;
18899;SDS011;9582;52.018;6.306;2024-01-15T09:06:02;5.73;;;4.23;;
18899;SDS011;9582;52.018;6.306;2024-01-15T09:08:28;3.93;;;3.40;;
18899;SDS011;9582;52.018;6.306;2024-01-15T09:10:55;3.60;;;2.80;;
18899;SDS011;9582;52.018;6.306;2024-01-15T09:13:22;4.47;;;3.30;;
18899;SDS011;9582;52.018;6.306;2024-01-15T09:15:50;3.30;;;2.90;;
18899;SDS011;9582;52.018;6.306;2024-01-15T09:18:16;4.17;;;2.60;;
18899;SDS011;9582;52.018;6.306;2024-01-15T09:20:43;2.33;;;2.00;;
18899;SDS011;9582;52.018;6.306;2024-01-15T09:23:10;2.73;;;2.30;;
18899;SDS011;9582;52.018;6.306;2024-01-15T10:19:46;6.23;;;2.77;;
18899;SDS011;9582;52.018;6.306;2024-01-15T10:22:13;5.47;;;3.83;;
18899;SDS011;9582;52.018;6.306;2024-01-15T10:24:41;8.43;;;4.43;;
18899;SDS011;9582;52.018;6.306;2024-01-15T10:27:08;5.90;;;4.23;;
18899;SDS011;9582;52.018;6.306;2024-01-15T10:29:35;6.80;;;4.33;;
18899;SDS011;9582;52.018;6.306;2024-01-15T10:32:02;15.77;;;5.40;;
18899;SDS011;9582;52.018;6.306;2024-01-15T10:34:32;7.13;;;3.73;;
18899;SDS011;9582;52.018;6.306;2024-01-15T10:37:00;8.73;;;3.43;;
18899;SDS011;9582;52.018;6.306;2024-01-15T10:39:28;6.97;;;3.60;;
18899;SDS011;9582;52.018;6.306;2024-01-15T10:41:55;3.47;;;1.70;;
18899;SDS011;9582;52.018;6.306;2024-01-15T10:44:22;8.10;;;3.27;;
18899;SDS011;9582;52.018;6.306;2024-01-15T10:46:49;3.33;;;2.20;;
18899;SDS011;9582;52.018;6.306;2024-01-15T10:49:16;3.43;;;1.47;;
18899;SDS011;9582;52.018;6.306;2024-01-15T10:51:44;4.73;;;1.60;;
18899;SDS011;9582;52.018;6.306;2024-01-15T10:54:12;4.90;;;1.97;;
18899;SDS011;9582;52.018;6.306;2024-01-15T10:56:40;7.63;;;1.50;;
18899;SDS011;9582;52.018;6.306;2024-01-15T10:59:08;6.23;;;0.93;;
18899;SDS011;9582;52.018;6.306;2024-01-15T11:01:36;4.27;;;1.37;;
18899;SDS011;9582;52.018;6.306;2024-01-15T11:04:03;4.43;;;1.50;;
18899;SDS011;9582;52.018;6.306;2024-01-15T11:06:40;2.23;;;1.00;;
18899;SDS011;9582;52.018;6.306;2024-01-15T11:09:08;3.93;;;1.07;;
18899;SDS011;9582;52.018;6.306;2024-01-15T11:11:36;2.03;;;1.23;;
18899;SDS011;9582;52.018;6.306;2024-01-15T11:14:06;1.43;;;0.77;;
18899;SDS011;9582;52.018;6.306;2024-01-15T11:19:24;3.00;;;1.00;;
18899;SDS011;9582;52.018;6.306;2024-01-15T11:21:51;3.50;;;1.57;;
18899;SDS011;9582;52.018;6.306;2024-01-15T11:24:33;3.00;;;1.07;;
18899;SDS011;9582;52.018;6.306;2024-01-15T11:27:03;2.50;;;1.17;;
18899;SDS011;9582;52.018;6.306;2024-01-15T11:29:31;0.90;;;0.90;;
18899;SDS011;9582;52.018;6.306;2024-01-15T11:32:00;1.43;;;0.93;;
18899;SDS011;9582;52.018;6.306;2024-01-15T11:34:49;4.20;;;1.27;;
18899;SDS011;9582;52.018;6.306;2024-01-15T11:37:18;3.50;;;1.33;;
18899;SDS011;9582;52.018;6.306;2024-01-15T11:39:44;2.47;;;0.60;;
18899;SDS011;9582;52.018;6.306;2024-01-15T11:42:14;1.90;;;1.13;;
18899;SDS011;9582;52.018;6.306;2024-01-15T11:44:41;1.70;;;1.07;;
18899;SDS011;9582;52.018;6.306;2024-01-15T11:47:08;2.87;;;1.47;;
18899;SDS011;9582;52.018;6.306;2024-01-15T11:49:58;3.27;;;1.50;;
18899;SDS011;9582;52.018;6.306;2024-01-15T11:52:27;2.70;;;1.20;;
18899;SDS011;9582;52.018;6.306;2024-01-15T11:55:00;2.53;;;1.33;;
18899;SDS011;9582;52.018;6.306;2024-01-15T11:57:36;3.63;;;1.27;;
18899;SDS011;9582;52.018;6.306;2024-01-15T12:00:07;3.80;;;1.17;;
18899;SDS011;9582;52.018;6.306;2024-01-15T12:02:38;3.13;;;1.53;;
18899;SDS011;9582;52.018;6.306;2024-01-15T12:05:05;3.87;;;1.30;;
18899;SDS011;9582;52.018;6.306;2024-01-15T12:07:32;1.30;;;0.43;;
18899;SDS011;9582;52.018;6.306;2024-01-15T12:09:59;2.70;;;0.73;;
18899;SDS011;9582;52.018;6.306;2024-01-15T12:12:27;1.70;;;0.83;;
18899;SDS011;9582;52.018;6.306;2024-01-15T12:15:15;0.80;;;0.40;;
18899;SDS011;9582;52.018;6.306;2024-01-15T12:17:42;7.03;;;0.93;;
18899;SDS011;9582;52.018;6.306;2024-01-15T12:20:09;3.40;;;2.97;;
18899;SDS011;9582;52.018;6.306;2024-01-15T12:22:37;3.07;;;0.67;;
18899;SDS011;9582;52.018;6.306;2024-01-15T12:25:04;1.30;;;0.53;;
18899;SDS011;9582;52.018;6.306;2024-01-15T12:27:31;6.63;;;1.20;;
18899;SDS011;9582;52.018;6.306;2024-01-15T12:29:58;0.77;;;0.63;;
18899;SDS011;9582;52.018;6.306;2024-01-15T12:32:26;4.27;;;1.00;;
18899;SDS011;9582;52.018;6.306;2024-01-15T12:34:53;3.13;;;1.43;;
18899;SDS011;9582;52.018;6.306;2024-01-15T12:37:20;4.60;;;1.20;;
18899;SDS011;9582;52.018;6.306;2024-01-15T12:39:46;3.20;;;1.30;;
18899;SDS011;9582;52.018;6.306;2024-01-15T12:42:13;4.90;;;1.33;;
18899;SDS011;9582;52.018;6.306;2024-01-15T12:44:40;2.17;;;0.70;;
18899;SDS011;9582;52.018;6.306;2024-01-15T12:47:07;6.53;;;1.30;;
18899;SDS011;9582;52.018;6.306;2024-01-15T12:49:37;2.97;;;1.23;;
18899;SDS011;9582;52.018;6.306;2024-01-15T12:52:07;2.53;;;1.13;;
18899;SDS011;9582;52.018;6.306;2024-01-15T12:54:35;3.13;;;1.50;;
18899;SDS011;9582;52.018;6.306;2024-01-15T12:57:01;5.90;;;1.20;;
18899;SDS011;9582;52.018;6.306;2024-01-15T12:59:28;3.27;;;0.50;;
18899;SDS011;9582;52.018;6.306;2024-01-15T13:01:55;2.07;;;0.77;;
18899;SDS011;9582;52.018;6.306;2024-01-15T13:04:22;3.87;;;1.13;;
18899;SDS011;9582;52.018;6.306;2024-01-15T13:06:50;2.10;;;0.30;;
18899;SDS011;9582;52.018;6.306;2024-01-15T13:09:17;2.03;;;0.87;;
18899;SDS011;9582;52.018;6.306;2024-01-15T13:11:44;1.07;;;0.50;;
18899;SDS011;9582;52.018;6.306;2024-01-15T13:14:10;1.70;;;0.40;;
18899;SDS011;9582;52.018;6.306;2024-01-15T13:16:38;1.43;;;0.47;;
18899;SDS011;9582;52.018;6.306;2024-01-15T13:19:06;1.77;;;0.30;;
18899;SDS011;9582;52.018;6.306;2024-01-15T13:21:33;1.33;;;0.30;;
18899;SDS011;9582;52.018;6.306;2024-01-15T13:24:01;2.70;;;0.80;;
18899;SDS011;9582;52.018;6.306;2024-01-15T13:26:30;0.70;;;0.53;;
18899;SDS011;9582;52.018;6.306;2024-01-15T13:28:57;0.60;;;0.60;;
18899;SDS011;9582;52.018;6.306;2024-01-15T13:31:24;1.47;;;0.60;;
18899;SDS011;9582;52.018;6.306;2024-01-15T13:33:51;2.77;;;0.50;;
18899;SDS011;9582;52.018;6.306;2024-01-15T13:36:17;4.03;;;0.87;;
18899;SDS011;9582;52.018;6.306;2024-01-15T13:38:46;6.13;;;0.70;;
18899;SDS011;9582;52.018;6.306;2024-01-15T13:41:15;2.00;;;0.40;;
18899;SDS011;9582;52.018;6.306;2024-01-15T13:43:43;0.80;;;0.50;;
18899;SDS011;9582;52.018;6.306;2024-01-15T13:46:10;2.67;;;0.73;;
18899;SDS011;9582;52.018;6.306;2024-01-15T13:48:37;3.47;;;0.70;;
18899;SDS011;9582;52.018;6.306;2024-01-15T13:51:04;2.90;;;0.40;;
18899;SDS011;9582;52.018;6.306;2024-01-15T13:53:31;0.90;;;0.50;;
18899;SDS011;9582;52.018;6.306;2024-01-15T13:55:57;0.83;;;0.70;;
18899;SDS011;9582;52.018;6.306;2024-01-15T13:58:26;2.80;;;0.60;;
18899;SDS011;9582;52.018;6.306;2024-01-15T14:00:52;1.93;;;1.00;;
18899;SDS011;9582;52.018;6.306;2024-01-15T14:03:19;0.73;;;0.47;;
18899;SDS011;9582;52.018;6.306;2024-01-15T14:05:46;1.43;;;0.50;;
18899;SDS011;9582;52.018;6.306;2024-01-15T14:08:12;0.70;;;0.47;;
18899;SDS011;9582;52.018;6.306;2024-01-15T14:10:39;1.47;;;0.43;;
18899;SDS011;9582;52.018;6.306;2024-01-15T14:13:06;1.27;;;0.20;;
18899;SDS011;9582;52.018;6.306;2024-01-15T14:15:34;3.23;;;0.60;;
18899;SDS011;9582;52.018;6.306;2024-01-15T14:18:00;1.63;;;0.73;;
18899;SDS011;9582;52.018;6.306;2024-01-15T14:20:27;0.60;;;0.40;;
18899;SDS011;9582;52.018;6.306;2024-01-15T14:22:54;0.37;;;0.17;;
18899;SDS011;9582;52.018;6.306;2024-01-15T14:25:20;6.70;;;1.10;;
18899;SDS011;9582;52.018;6.306;2024-01-15T14:27:47;4.33;;;0.70;;
18899;SDS011;9582;52.018;6.306;2024-01-15T14:30:15;3.63;;;0.60;;
18899;SDS011;9582;52.018;6.306;2024-01-15T14:32:43;5.03;;;0.90;;
18899;SDS011;9582;52.018;6.306;2024-01-15T14:35:10;3.77;;;0.80;;
18899;SDS011;9582;52.018;6.306;2024-01-15T14:37:37;3.47;;;0.87;;
18899;SDS011;9582;52.018;6.306;2024-01-15T14:40:03;2.77;;;0.70;;
18899;SDS011;9582;52.018;6.306;2024-01-15T14:42:32;3.77;;;0.70;;
18899;SDS011;9582;52.018;6.306;2024-01-15T14:44:59;3.10;;;0.87;;
18899;SDS011;9582;52.018;6.306;2024-01-15T14:47:27;1.63;;;0.60;;
18899;SDS011;9582;52.018;6.306;2024-01-15T14:49:55;1.77;;;0.50;;
18899;SDS011;9582;52.018;6.306;2024-01-15T14:52:23;2.57;;;0.50;;
18899;SDS011;9582;52.018;6.306;2024-01-15T14:54:49;1.60;;;0.30;;
18899;SDS011;9582;52.018;6.306;2024-01-15T14:57:16;4.10;;;0.73;;
18899;SDS011;9582;52.018;6.306;2024-01-15T14:59:43;3.07;;;1.20;;
18899;SDS011;9582;52.018;6.306;2024-01-15T15:02:10;5.63;;;1.23;;
18899;SDS011;9582;52.018;6.306;2024-01-15T15:04:37;3.63;;;0.90;;
18899;SDS011;9582;52.018;6.306;2024-01-15T15:07:05;3.53;;;0.90;;
18899;SDS011;9582;52.018;6.306;2024-01-15T15:09:32;3.60;;;0.80;;
18899;SDS011;9582;52.018;6.306;2024-01-15T15:11:59;4.00;;;1.00;;
18899;SDS011;9582;52.018;6.306;2024-01-15T15:14:27;8.37;;;1.20;;
18899;SDS011;9582;52.018;6.306;2024-01-15T15:16:54;2.57;;;1.20;;
18899;SDS011;9582;52.018;6.306;2024-01-15T15:19:20;4.00;;;1.13;;
18899;SDS011;9582;52.018;6.306;2024-01-15T15:21:47;5.00;;;1.07;;
18899;SDS011;9582;52.018;6.306;2024-01-15T15:24:15;2.90;;;1.00;;
18899;SDS011;9582;52.018;6.306;2024-01-15T15:26:42;3.67;;;1.00;;
18899;SDS011;9582;52.018;6.306;2024-01-15T15:29:08;1.63;;;0.57;;
18899;SDS011;9582;52.018;6.306;2024-01-15T15:31:35;2.20;;;0.70;;
18899;SDS011;9582;52.018;6.306;2024-01-15T15:34:02;1.13;;;0.77;;
18899;SDS011;9582;52.018;6.306;2024-01-15T15:36:28;7.23;;;1.13;;
18899;SDS011;9582;52.018;6.306;2024-01-15T15:38:56;1.27;;;0.43;;
18899;SDS011;9582;52.018;6.306;2024-01-15T15:41:25;3.67;;;0.67;;
18899;SDS011;9582;52.018;6.306;2024-01-15T15:43:53;2.87;;;0.70;;
18899;SDS011;9582;52.018;6.306;2024-01-15T15:46:19;3.87;;;1.47;;
18899;SDS011;9582;52.018;6.306;2024-01-15T15:48:46;2.30;;;0.80;;
18899;SDS011;9582;52.018;6.306;2024-01-15T15:51:13;3.63;;;1.00;;
18899;SDS011;9582;52.018;6.306;2024-01-15T15:53:40;4.67;;;0.97;;
18899;SDS011;9582;52.018;6.306;2024-01-15T15:56:07;6.17;;;1.30;;
18899;SDS011;9582;52.018;6.306;2024-01-15T15:58:36;2.63;;;1.13;;